Time;durP1;ratioP1;P1;durP2;ratioP2;P2;SDS_P1;SDS_P2;PMS_P1;PMS_P2;Temp;Humidity;BMP_temperature;BMP_pressure;BME280_temperature;BME280_humidity;BME280_pressure;Samples;Min_cycle;Max_cycle;Signal;HPM_P1;HPM_P2
2023/01/01 00:00:42;;;;;;;45.50;38.10;;;14.50;99.90;;;;;;10375147;28;20202;-81
2023/01/01 00:05:44;;;;;;;43.60;37.20;;;14.50;99.90;;;;;;10350240;28;20257;-82
2023/01/01 00:10:47;;;;;;;31.17;28.00;;;14.50;99.90;;;;;;10340744;28;20214;-82
2023/01/01 00:15:50;;;;;;;29.33;26.17;;;14.50;99.90;;;;;;10376169;28;20224;-82
2023/01/01 00:20:52;;;;;;;23.00;19.67;;;14.50;99.90;;;;;;10357501;28;20278;-81
2023/01/01 00:25:55;;;;;;;19.00;14.97;;;14.50;99.90;;;;;;10370266;28;20227;-80
2023/01/01 00:30:57;;;;;;;11.17;10.07;;;14.60;99.90;;;;;;10358404;28;20609;-81
2023/01/01 00:36:06;;;;;;;9.67;8.77;;;14.60;99.90;;;;;;10358112;28;20219;-82
2023/01/01 00:41:11;;;;;;;8.43;7.63;;;14.60;99.90;;;;;;10370538;28;20195;-81
2023/01/01 00:46:14;;;;;;;7.40;6.63;;;14.70;99.90;;;;;;10357012;28;20258;-81
2023/01/01 00:51:16;;;;;;;8.83;7.93;;;14.70;99.90;;;;;;10373267;28;20231;-82
2023/01/01 00:56:19;;;;;;;8.60;7.80;;;14.70;99.90;;;;;;10332699;28;20270;-82
2023/01/01 01:01:21;;;;;;;9.00;8.10;;;14.70;99.90;;;;;;10348514;28;20221;-83
2023/01/01 01:06:23;;;;;;;10.07;8.23;;;14.60;99.90;;;;;;10372234;28;20234;-81
2023/01/01 01:11:27;;;;;;;10.17;9.27;;;14.60;99.90;;;;;;10346366;28;20225;-82
2023/01/01 01:16:32;;;;;;;10.57;9.47;;;14.50;99.90;;;;;;10331560;28;20203;-81
2023/01/01 01:21:34;;;;;;;12.80;11.50;;;14.40;99.90;;;;;;10349130;28;20218;-81
2023/01/01 01:26:38;;;;;;;14.50;12.60;;;14.30;99.90;;;;;;10358871;28;20226;-81
2023/01/01 01:31:40;;;;;;;15.07;13.50;;;14.20;99.90;;;;;;10349356;28;20261;-80
2023/01/01 01:36:42;;;;;;;16.13;14.53;;;14.10;99.90;;;;;;10378875;28;20607;-80
2023/01/01 01:41:46;;;;;;;18.10;16.30;;;14.10;99.90;;;;;;10362690;28;20287;-80
2023/01/01 01:46:49;;;;;;;15.13;13.63;;;14.00;99.90;;;;;;10370910;28;20225;-81
2023/01/01 01:51:51;;;;;;;15.00;13.17;;;13.80;99.90;;;;;;10362592;28;20217;-80
2023/01/01 01:56:57;;;;;;;50.70;42.13;;;13.70;99.90;;;;;;10372820;28;20194;-80
2023/01/01 02:02:01;;;;;;;32.33;27.73;;;13.60;99.90;;;;;;10373864;28;20222;-80
2023/01/01 02:07:03;;;;;;;20.47;18.37;;;13.50;99.90;;;;;;10360808;28;20195;-81
2023/01/01 02:12:07;;;;;;;18.03;16.23;;;13.40;99.90;;;;;;10350291;28;20225;-81
2023/01/01 02:17:14;;;;;;;14.73;13.43;;;13.30;99.90;;;;;;10355726;28;20294;-80
2023/01/01 02:22:25;;;;;;;11.07;10.07;;;13.20;99.90;;;;;;10360684;28;20208;-81
2023/01/01 02:27:39;;;;;;;10.57;9.47;;;13.30;99.90;;;;;;10350823;28;20585;-81
2023/01/01 02:32:46;;;;;;;9.43;8.63;;;13.30;99.90;;;;;;10375838;28;20207;-81
2023/01/01 02:37:50;;;;;;;9.93;8.60;;;13.50;99.90;;;;;;10361551;28;20253;-80
2023/01/01 02:42:53;;;;;;;10.60;9.70;;;13.70;99.90;;;;;;10371936;28;20608;-81
2023/01/01 02:47:57;;;;;;;12.10;10.90;;;13.80;99.90;;;;;;10360106;28;20203;-81
2023/01/01 02:53:07;;;;;;;12.03;9.33;;;14.00;99.90;;;;;;10370216;28;20257;-81
2023/01/01 03:03:40;;;;;;;11.20;10.10;;;14.10;99.90;;;;;;10352619;28;20226;-80
2023/01/01 03:08:48;;;;;;;10.30;9.30;;;14.10;99.90;;;;;;10329087;28;20195;-81
2023/01/01 03:13:57;;;;;;;13.40;9.30;;;14.20;99.90;;;;;;10341367;28;20223;-80
2023/01/01 03:19:11;;;;;;;10.53;9.53;;;14.20;99.90;;;;;;10342419;28;20195;-80
2023/01/01 03:24:20;;;;;;;10.77;9.43;;;14.20;99.90;;;;;;10377288;28;20703;-80
2023/01/01 03:29:24;;;;;;;10.10;8.17;;;14.20;99.90;;;;;;10385709;28;20214;-79
2023/01/01 03:34:33;;;;;;;9.17;8.30;;;14.30;99.90;;;;;;10357632;28;20696;-80
2023/01/01 03:39:40;;;;;;;10.67;9.67;;;14.10;99.90;;;;;;10352502;28;20223;-79
2023/01/01 03:44:47;;;;;;;9.50;8.70;;;14.10;99.90;;;;;;10387841;28;20230;-79
2023/01/01 03:49:51;;;;;;;9.33;8.50;;;14.10;99.90;;;;;;10359587;28;20191;-80
2023/01/01 03:54:59;;;;;;;9.53;8.40;;;14.00;99.90;;;;;;10387373;28;20215;-80
2023/01/01 04:00:07;;;;;;;10.40;9.50;;;13.90;99.90;;;;;;10384983;28;20198;-80
2023/01/01 04:05:19;;;;;;;9.83;8.90;;;13.70;99.90;;;;;;10356722;28;20218;-80
2023/01/01 04:10:23;;;;;;;10.63;8.83;;;13.60;99.90;;;;;;10351819;28;20214;-80
2023/01/01 04:15:27;;;;;;;9.87;8.80;;;13.40;99.90;;;;;;10376513;28;20218;-80
2023/01/01 04:20:31;;;;;;;8.80;8.00;;;13.50;99.90;;;;;;10325296;28;20199;-80
2023/01/01 04:25:33;;;;;;;9.20;8.37;;;13.40;99.90;;;;;;10374733;28;20269;-80
2023/01/01 04:30:35;;;;;;;10.37;9.23;;;13.40;99.90;;;;;;10342666;28;20214;-81
2023/01/01 04:35:39;;;;;;;7.47;6.63;;;13.50;99.90;;;;;;10377151;28;20221;-81
2023/01/01 04:40:41;;;;;;;7.00;6.30;;;13.50;99.90;;;;;;10359914;28;20842;-81
2023/01/01 04:45:43;;;;;;;7.47;6.47;;;13.70;99.90;;;;;;10363444;28;20214;-80
2023/01/01 04:50:54;;;;;;;6.70;5.87;;;13.80;99.90;;;;;;10361229;28;20210;-80
2023/01/01 04:56:02;;;;;;;6.47;5.87;;;13.90;99.90;;;;;;10390025;28;20187;-80
2023/01/01 05:01:05;;;;;;;6.17;5.03;;;14.00;99.90;;;;;;10351833;28;20287;-80
2023/01/01 05:06:10;;;;;;;5.30;4.80;;;14.00;99.90;;;;;;10375143;28;20226;-81
2023/01/01 05:11:14;;;;;;;5.70;5.20;;;14.10;99.90;;;;;;10349536;28;20218;-81
2023/01/01 05:16:18;;;;;;;7.10;5.70;;;14.20;99.90;;;;;;10381259;28;20202;-81
2023/01/01 05:21:23;;;;;;;5.43;4.77;;;14.30;99.90;;;;;;10348721;28;20219;-81
2023/01/01 05:26:29;;;;;;;6.10;5.57;;;14.40;99.90;;;;;;10364057;28;20305;-80
2023/01/01 05:31:32;;;;;;;5.83;5.27;;;14.40;99.90;;;;;;10387080;28;20248;-80
2023/01/01 05:36:38;;;;;;;5.93;5.43;;;14.40;99.90;;;;;;10351731;28;20246;-80
2023/01/01 05:41:40;;;;;;;6.57;6.00;;;14.30;99.90;;;;;;10385274;28;20276;-80
2023/01/01 05:46:42;;;;;;;6.80;6.10;;;14.20;99.90;;;;;;10362716;28;20222;-81
2023/01/01 05:51:45;;;;;;;7.13;6.00;;;14.20;99.90;;;;;;10362030;28;20234;-80
2023/01/01 05:56:48;;;;;;;6.07;5.40;;;14.20;99.90;;;;;;10387899;28;20249;-81
2023/01/01 06:01:50;;;;;;;6.53;5.10;;;14.10;99.90;;;;;;10355337;28;20265;-81
2023/01/01 06:06:53;;;;;;;9.23;5.27;;;14.10;99.90;;;;;;10379563;28;20234;-81
2023/01/01 06:11:55;;;;;;;5.33;4.93;;;14.10;99.90;;;;;;10380895;28;20233;-80
2023/01/01 06:16:57;;;;;;;5.97;5.47;;;14.10;99.90;;;;;;10382291;28;20254;-81
2023/01/01 06:22:01;;;;;;;8.80;6.73;;;14.10;99.90;;;;;;10355148;28;20251;-81
2023/01/01 06:27:04;;;;;;;5.07;4.67;;;14.10;99.90;;;;;;10359253;28;20290;-81
2023/01/01 06:32:06;;;;;;;5.90;5.40;;;14.00;99.90;;;;;;10351463;28;20721;-81
2023/01/01 06:37:09;;;;;;;5.13;4.63;;;13.90;99.90;;;;;;10374298;28;20290;-81
2023/01/01 06:42:11;;;;;;;5.17;4.77;;;13.90;99.90;;;;;;10333858;28;20212;-81
2023/01/01 06:47:15;;;;;;;5.60;5.10;;;13.90;99.90;;;;;;10361996;28;20278;-80
2023/01/01 06:52:18;;;;;;;5.23;4.83;;;13.70;99.90;;;;;;10365554;28;20223;-81
2023/01/01 06:57:21;;;;;;;6.10;5.50;;;13.60;99.90;;;;;;10358985;28;20190;-82
2023/01/01 07:02:23;;;;;;;5.20;4.70;;;13.60;99.90;;;;;;10340484;28;20298;-81
2023/01/01 07:07:26;;;;;;;4.50;4.20;;;13.50;99.90;;;;;;10371569;28;20687;-81
2023/01/01 07:12:28;;;;;;;4.63;4.23;;;13.50;99.90;;;;;;10374341;23;20598;-80
2023/01/01 07:17:30;;;;;;;4.83;4.20;;;13.60;99.90;;;;;;10349316;28;20188;-80
2023/01/01 07:22:34;;;;;;;5.07;4.47;;;13.70;99.90;;;;;;10369587;28;20245;-80
2023/01/01 07:27:36;;;;;;;4.40;3.80;;;13.80;99.90;;;;;;10358924;28;20205;-80
2023/01/01 07:32:38;;;;;;;5.23;4.70;;;13.90;99.90;;;;;;10348812;28;20226;-81
2023/01/01 07:37:42;;;;;;;7.90;4.63;;;13.90;99.90;;;;;;10366600;28;20554;-81
2023/01/01 07:42:44;;;;;;;4.70;4.03;;;14.00;99.90;;;;;;10348878;28;20214;-83
2023/01/01 07:47:51;;;;;;;5.17;4.67;;;14.00;99.90;;;;;;10344187;28;20659;-80
2023/01/01 07:52:54;;;;;;;5.13;4.70;;;13.90;99.90;;;;;;10328972;28;20317;-80
2023/01/01 07:57:56;;;;;;;5.50;5.10;;;13.90;99.90;;;;;;10336540;28;20199;-83
2023/01/01 08:02:58;;;;;;;6.07;5.57;;;13.80;99.90;;;;;;10338727;28;20218;-80
2023/01/01 08:08:01;;;;;;;6.17;5.60;;;13.80;99.90;;;;;;10345944;28;20289;-80
2023/01/01 08:13:05;;;;;;;5.10;4.70;;;13.70;99.90;;;;;;10354880;28;20214;-79
2023/01/01 08:18:07;;;;;;;5.47;4.90;;;13.70;99.90;;;;;;10346260;28;20811;-83
2023/01/01 08:23:10;;;;;;;6.27;5.10;;;13.60;99.90;;;;;;10360744;28;20206;-82
2023/01/01 08:28:13;;;;;;;5.63;5.23;;;13.50;99.90;;;;;;10343243;28;20210;-79
2023/01/01 08:33:15;;;;;;;5.23;4.83;;;13.20;99.90;;;;;;10371915;28;20210;-79
2023/01/01 08:38:19;;;;;;;5.63;5.13;;;13.10;99.90;;;;;;10366743;28;20195;-81
2023/01/01 08:43:21;;;;;;;5.60;5.10;;;13.00;99.90;;;;;;10346311;28;20274;-82
2023/01/01 08:48:23;;;;;;;6.10;5.60;;;12.90;99.90;;;;;;10321286;28;20192;-82
2023/01/01 08:53:27;;;;;;;6.23;5.63;;;12.90;99.90;;;;;;10346333;28;20229;-83
2023/01/01 08:58:30;;;;;;;5.83;5.10;;;12.90;99.90;;;;;;10335814;28;20282;-83
2023/01/01 09:03:32;;;;;;;4.77;4.37;;;13.00;99.90;;;;;;10341224;28;20219;-82
2023/01/01 09:08:35;;;;;;;4.10;3.77;;;13.00;99.90;;;;;;10357810;28;20226;-82
2023/01/01 09:13:37;;;;;;;5.37;4.20;;;13.10;99.90;;;;;;10351920;28;20762;-81
2023/01/01 09:18:39;;;;;;;4.93;4.53;;;13.20;99.90;;;;;;10351050;28;20249;-82
2023/01/01 09:23:42;;;;;;;4.30;3.60;;;13.20;99.90;;;;;;10342242;28;20211;-82
2023/01/01 09:28:45;;;;;;;5.83;4.57;;;13.30;99.90;;;;;;10354356;28;20294;-81
2023/01/01 09:33:47;;;;;;;6.53;4.90;;;13.40;99.90;;;;;;10357497;28;20207;-82
2023/01/01 09:38:51;;;;;;;6.23;4.87;;;13.40;99.90;;;;;;10353054;28;20199;-81
2023/01/01 09:44:03;;;;;;;7.30;4.93;;;13.50;99.90;;;;;;10336643;28;20222;-79
2023/01/01 09:49:12;;;;;;;5.70;5.20;;;13.50;99.90;;;;;;10343581;28;20194;-82
2023/01/01 09:54:25;;;;;;;7.53;5.90;;;13.50;99.90;;;;;;10369176;28;20224;-80
2023/01/01 09:59:28;;;;;;;5.77;5.27;;;13.50;99.90;;;;;;10353489;28;20260;-81
2023/01/01 10:04:43;;;;;;;5.70;5.20;;;13.60;99.90;;;;;;10344143;28;20260;-80
2023/01/01 10:09:52;;;;;;;6.40;4.50;;;13.60;99.90;;;;;;10354288;28;20191;-80
2023/01/01 10:15:03;;;;;;;5.10;4.50;;;13.70;99.90;;;;;;10363003;28;20218;-81
2023/01/01 10:20:14;;;;;;;4.60;4.23;;;13.80;99.90;;;;;;10353220;28;20194;-80
2023/01/01 10:25:21;;;;;;;6.10;5.00;;;13.80;99.90;;;;;;10363212;28;20625;-82
2023/01/01 10:30:24;;;;;;;6.73;4.23;;;14.00;99.90;;;;;;10347408;28;20593;-80
2023/01/01 10:35:33;;;;;;;4.73;4.33;;;14.10;99.90;;;;;;10348920;28;20220;-85
2023/01/01 10:40:36;;;;;;;4.07;3.70;;;14.20;99.90;;;;;;10364749;28;20194;-80
2023/01/01 10:45:44;;;;;;;6.87;5.20;;;14.30;99.90;;;;;;10354817;28;20221;-83
2023/01/01 10:50:50;;;;;;;4.13;3.73;;;14.50;99.90;;;;;;10348383;28;20231;-79
2023/01/01 10:56:05;;;;;;;4.50;3.37;;;14.60;99.90;;;;;;10364041;28;20218;-79
2023/01/01 11:01:09;;;;;;;5.17;3.80;;;14.80;99.90;;;;;;10376931;28;20200;-80
2023/01/01 11:06:20;;;;;;;5.47;4.23;;;14.90;99.90;;;;;;10347926;28;20187;-81
2023/01/01 11:11:28;;;;;;;5.27;3.50;;;15.00;99.90;;;;;;10347666;28;20191;-81
2023/01/01 11:16:32;;;;;;;4.63;4.10;;;15.20;99.90;;;;;;10340060;28;20215;-81
2023/01/01 11:21:34;;;;;;;6.40;4.70;;;15.20;99.90;;;;;;10352170;28;20694;-81
2023/01/01 11:26:38;;;;;;;6.90;3.53;;;15.30;99.90;;;;;;10349330;28;20187;-81
2023/01/01 11:31:40;;;;;;;5.40;3.93;;;15.40;99.90;;;;;;10341911;28;20222;-82
2023/01/01 11:36:42;;;;;;;32.03;24.20;;;15.50;99.90;;;;;;10347569;28;20687;-80
2023/01/01 11:41:48;;;;;;;6.40;5.23;;;15.50;99.90;;;;;;10363468;28;20250;-80
2023/01/01 11:46:51;;;;;;;3.47;3.17;;;15.50;99.90;;;;;;10361391;28;20198;-79
2023/01/01 11:51:53;;;;;;;3.47;3.17;;;15.60;99.90;;;;;;10371013;28;20675;-81
2023/01/01 11:57:02;;;;;;;4.97;3.63;;;15.60;99.90;;;;;;10364566;28;20592;-80
2023/01/01 12:02:05;;;;;;;4.03;3.37;;;15.60;99.90;;;;;;10361130;28;20219;-80
2023/01/01 12:07:10;;;;;;;6.10;3.63;;;15.60;99.90;;;;;;10346214;28;20195;-81
2023/01/01 12:12:21;;;;;;;4.33;3.10;;;15.60;99.90;;;;;;10363760;28;20249;-79
2023/01/01 12:17:27;;;;;;;5.20;3.27;;;15.70;99.90;;;;;;10364802;28;20305;-82
2023/01/01 12:22:29;;;;;;;3.70;3.40;;;15.60;99.90;;;;;;10349881;28;20295;-81
2023/01/01 12:27:47;;;;;;;5.37;3.40;;;15.70;99.90;;;;;;10352097;28;20198;-82
2023/01/01 12:33:33;;;;;;;7.30;3.57;;;15.70;99.90;;;;;;10348414;28;20222;-83
2023/01/01 12:38:59;;;;;;;5.20;3.53;;;15.70;99.90;;;;;;10359725;28;20205;-82
2023/01/01 12:44:12;;;;;;;6.20;5.47;;;15.70;99.90;;;;;;10341179;28;20641;-83
2023/01/01 12:49:45;;;;;;;3.63;3.10;;;15.70;99.90;;;;;;10369732;28;20194;-83
2023/01/01 12:55:21;;;;;;;4.03;3.33;;;15.70;99.90;;;;;;10355438;28;20253;-82
2023/01/01 13:00:25;;;;;;;9.40;3.63;;;15.70;99.90;;;;;;10351273;28;20201;-83
2023/01/01 13:05:35;;;;;;;6.57;4.53;;;15.70;99.90;;;;;;10297292;28;20238;-83
2023/01/01 13:10:39;;;;;;;5.93;4.30;;;15.70;99.90;;;;;;10340596;28;20210;-83
2023/01/01 13:15:48;;;;;;;5.27;4.20;;;15.80;99.90;;;;;;10346944;23;20310;-82
2023/01/01 13:21:20;;;;;;;6.07;4.70;;;15.70;99.90;;;;;;10309527;28;20205;-81
2023/01/01 13:26:33;;;;;;;7.13;4.97;;;15.60;99.90;;;;;;10369955;28;20297;-81
2023/01/01 13:32:08;;;;;;;6.10;4.50;;;15.60;99.90;;;;;;10339154;28;20286;-82
2023/01/01 13:37:43;;;;;;;4.30;3.90;;;15.60;99.90;;;;;;10330486;28;20275;-81
2023/01/01 13:43:05;;;;;;;6.00;4.40;;;15.60;99.90;;;;;;10334408;28;20230;-81
2023/01/01 13:48:24;;;;;;;14.93;4.80;;;15.60;99.90;;;;;;10336794;28;20734;-82
2023/01/01 13:53:48;;;;;;;11.87;5.30;;;15.60;99.90;;;;;;10329083;28;20228;-82
2023/01/01 13:59:35;;;;;;;6.10;4.87;;;15.60;99.90;;;;;;10340373;28;20266;-81
2023/01/01 14:04:42;;;;;;;6.03;5.00;;;15.60;99.90;;;;;;10319450;28;20207;-82
2023/01/01 14:09:44;;;;;;;5.20;4.70;;;15.60;99.90;;;;;;10367747;28;20211;-80
2023/01/01 14:14:46;;;;;;;6.07;4.53;;;15.50;99.90;;;;;;10335062;28;20226;-82
2023/01/01 14:19:50;;;;;;;9.10;5.10;;;15.50;99.90;;;;;;10344500;28;20202;-82
2023/01/01 14:24:53;;;;;;;5.93;4.50;;;15.40;99.90;;;;;;10388360;28;20211;-80
2023/01/01 14:29:55;;;;;;;6.73;4.30;;;15.30;99.90;;;;;;10383012;28;20199;-82
2023/01/01 14:35:02;;;;;;;12.30;5.10;;;15.30;99.90;;;;;;10358860;28;20702;-79
2023/01/01 14:40:28;;;;;;;6.00;5.40;;;15.30;99.90;;;;;;10357646;28;20206;-79
2023/01/01 14:45:31;;;;;;;7.07;6.37;;;15.30;99.90;;;;;;10359178;28;20203;-79
2023/01/01 14:50:36;;;;;;;6.73;4.40;;;15.10;99.90;;;;;;10364670;28;20545;-79
2023/01/01 14:55:40;;;;;;;6.03;4.70;;;15.00;99.90;;;;;;10359822;28;20306;-81
2023/01/01 15:00:43;;;;;;;12.07;5.30;;;15.00;99.90;;;;;;10354909;28;20202;-81
2023/01/01 15:05:57;;;;;;;7.67;5.57;;;14.80;99.90;;;;;;10356102;28;20261;-81
2023/01/01 15:11:02;;;;;;;11.20;5.50;;;14.70;99.90;;;;;;10354447;28;20209;-81
2023/01/01 15:16:16;;;;;;;8.00;4.57;;;14.60;99.90;;;;;;10335958;28;20234;-81
2023/01/01 15:21:34;;;;;;;5.83;4.13;;;14.50;99.90;;;;;;10377188;28;20213;-80
2023/01/01 15:26:41;;;;;;;5.53;5.00;;;14.40;99.90;;;;;;10389298;28;20198;-81
2023/01/01 15:31:47;;;;;;;7.53;5.47;;;14.30;99.90;;;;;;10364533;28;20674;-81
2023/01/01 15:36:53;;;;;;;6.87;5.00;;;14.10;99.90;;;;;;10323092;28;20592;-82
2023/01/01 15:41:55;;;;;;;6.77;5.97;;;14.10;99.90;;;;;;10343101;28;20675;-82
2023/01/01 15:47:06;;;;;;;9.60;6.10;;;14.10;99.90;;;;;;10382910;28;20215;-82
2023/01/01 15:52:20;;;;;;;5.80;5.20;;;14.00;99.90;;;;;;10384600;28;20237;-80
2023/01/01 15:57:23;;;;;;;12.27;7.30;;;13.90;99.90;;;;;;10380077;28;20768;-80
2023/01/01 16:02:30;;;;;;;9.70;8.57;;;13.80;99.90;;;;;;10365853;28;20215;-80
2023/01/01 16:07:34;;;;;;;12.30;8.97;;;13.80;99.90;;;;;;10348409;28;20191;-82
2023/01/01 16:12:36;;;;;;;9.93;7.30;;;13.80;99.90;;;;;;10372311;28;20230;-81
2023/01/01 16:17:39;;;;;;;11.27;8.50;;;13.70;99.90;;;;;;10358873;28;20235;-81
2023/01/01 16:22:43;;;;;;;12.10;9.80;;;13.60;99.90;;;;;;10383864;28;20227;-80
2023/01/01 16:27:46;;;;;;;12.70;11.30;;;13.60;99.90;;;;;;10389899;28;20191;-81
2023/01/01 16:32:49;;;;;;;10.00;8.67;;;13.50;99.90;;;;;;10335325;28;20703;-79
2023/01/01 16:37:52;;;;;;;8.70;7.90;;;13.50;99.90;;;;;;10388687;28;20238;-79
2023/01/01 16:42:54;;;;;;;11.90;9.40;;;13.50;99.90;;;;;;10335554;28;20291;-79
2023/01/01 16:47:56;;;;;;;11.73;8.93;;;13.50;99.90;;;;;;10358608;28;20561;-80
2023/01/01 16:53:00;;;;;;;14.77;12.50;;;13.50;99.90;;;;;;10384523;28;20681;-79
2023/01/01 16:58:02;;;;;;;12.90;10.50;;;13.50;99.90;;;;;;10338732;28;20219;-80
2023/01/01 17:03:04;;;;;;;7.67;6.87;;;13.50;99.90;;;;;;10337625;28;20241;-80
2023/01/01 17:08:07;;;;;;;11.13;7.50;;;13.50;99.90;;;;;;10346127;28;20615;-80
2023/01/01 17:13:09;;;;;;;10.27;7.03;;;13.40;99.90;;;;;;10346958;28;20236;-80
2023/01/01 17:18:12;;;;;;;10.60;6.93;;;13.40;99.90;;;;;;10332963;28;20223;-79
2023/01/01 17:23:15;;;;;;;8.17;7.40;;;13.40;99.90;;;;;;10382714;28;20786;-80
2023/01/01 17:28:17;;;;;;;8.17;6.13;;;13.30;99.90;;;;;;10324081;28;20570;-80
2023/01/01 17:33:19;;;;;;;10.70;6.50;;;13.30;99.90;;;;;;10331870;28;20226;-79
2023/01/01 17:38:23;;;;;;;6.00;5.50;;;13.20;99.90;;;;;;10330432;28;20232;-80
2023/01/01 17:43:26;;;;;;;8.00;6.20;;;13.20;99.90;;;;;;10334301;28;20211;-81
2023/01/01 17:48:28;;;;;;;7.13;6.00;;;13.10;99.90;;;;;;10337993;28;20597;-79
2023/01/01 17:53:31;;;;;;;6.20;5.60;;;13.10;99.90;;;;;;10331671;28;20631;-79
2023/01/01 17:58:33;;;;;;;6.80;6.10;;;13.00;99.90;;;;;;10328921;28;20698;-80
2023/01/01 18:03:36;;;;;;;6.70;6.10;;;13.00;99.90;;;;;;10331548;28;20318;-81
2023/01/01 18:08:39;;;;;;;7.80;6.40;;;12.90;99.90;;;;;;10340973;28;20217;-81
2023/01/01 18:13:41;;;;;;;5.57;5.07;;;12.90;99.90;;;;;;10345303;28;20322;-80
2023/01/01 18:18:44;;;;;;;9.20;6.97;;;12.80;99.90;;;;;;10349917;28;20223;-80
2023/01/01 18:23:49;;;;;;;6.63;5.13;;;12.80;99.90;;;;;;10329885;28;20290;-80
2023/01/01 18:28:52;;;;;;;9.63;4.70;;;12.90;99.90;;;;;;10364234;28;20289;-79
2023/01/01 18:33:54;;;;;;;5.00;4.47;;;12.90;99.90;;;;;;10369386;28;20246;-79
2023/01/01 18:38:59;;;;;;;6.60;4.87;;;12.90;99.90;;;;;;10350198;28;20230;-80
2023/01/01 18:44:02;;;;;;;5.97;4.80;;;12.90;99.90;;;;;;10348008;28;20239;-80
2023/01/01 18:49:10;;;;;;;4.60;4.20;;;12.90;99.90;;;;;;10350760;28;20188;-80
2023/01/01 18:54:13;;;;;;;7.27;5.37;;;12.90;99.90;;;;;;10331893;28;20711;-80
2023/01/01 18:59:20;;;;;;;6.77;5.60;;;12.90;99.90;;;;;;10360716;28;20477;-79
2023/01/01 19:04:22;;;;;;;6.40;5.27;;;12.80;99.90;;;;;;10367005;28;20237;-79
2023/01/01 19:09:25;;;;;;;11.43;7.73;;;12.80;99.90;;;;;;10384134;28;20195;-79
2023/01/01 19:14:31;;;;;;;4.80;4.40;;;12.90;99.90;;;;;;10386091;23;20342;-79
2023/01/01 19:19:38;;;;;;;5.50;5.00;;;12.90;99.90;;;;;;10359327;28;20694;-79
2023/01/01 19:24:44;;;;;;;6.50;4.10;;;13.00;99.90;;;;;;10336907;28;20219;-81
2023/01/01 19:29:48;;;;;;;4.60;4.20;;;13.20;99.90;;;;;;10364779;28;20302;-80
2023/01/01 19:34:50;;;;;;;3.97;3.20;;;13.50;99.90;;;;;;10343475;28;20282;-80
2023/01/01 19:39:53;;;;;;;4.60;4.20;;;13.70;99.90;;;;;;10371875;28;20658;-80
2023/01/01 19:44:55;;;;;;;4.93;3.20;;;13.90;99.90;;;;;;10342794;28;20230;-79
2023/01/01 19:49:57;;;;;;;4.93;4.53;;;14.00;99.90;;;;;;10341374;28;20191;-80
2023/01/01 19:55:07;;;;;;;6.03;4.50;;;14.10;99.90;;;;;;10309451;28;20266;-80
2023/01/01 20:00:12;;;;;;;6.20;4.80;;;14.20;99.90;;;;;;10354288;28;20281;-79
2023/01/01 20:05:16;;;;;;;10.90;8.17;;;14.20;99.90;;;;;;10372844;28;20243;-81
2023/01/01 20:10:19;;;;;;;7.90;5.20;;;14.30;99.90;;;;;;10369559;28;20253;-82
2023/01/01 20:15:23;;;;;;;6.37;5.47;;;14.30;99.90;;;;;;10371959;28;20234;-80
2023/01/01 20:20:25;;;;;;;5.50;4.20;;;14.40;99.90;;;;;;10328817;28;20206;-80
2023/01/01 20:25:28;;;;;;;4.40;4.00;;;14.30;99.90;;;;;;10341738;28;20211;-80
2023/01/01 20:30:30;;;;;;;5.13;4.17;;;14.30;99.90;;;;;;10367330;28;20198;-79
2023/01/01 20:40:53;;;;;;;5.33;4.20;;;14.30;99.90;;;;;;10330833;28;20558;-80
2023/01/01 20:45:56;;;;;;;7.50;5.60;;;14.30;99.90;;;;;;10337447;28;20217;-80
2023/01/01 20:51:00;;;;;;;4.47;4.03;;;14.40;99.70;;;;;;10310044;28;20245;-80
2023/01/01 20:56:03;;;;;;;4.27;3.60;;;14.30;99.80;;;;;;10324465;28;20242;-80
2023/01/01 21:01:06;;;;;;;4.37;3.97;;;14.40;99.50;;;;;;10328818;28;20546;-80
2023/01/01 21:06:08;;;;;;;3.10;2.90;;;14.30;99.90;;;;;;10338505;28;20250;-80
2023/01/01 21:11:11;;;;;;;6.83;3.60;;;14.30;99.90;;;;;;10350679;28;20196;-79
2023/01/01 21:16:17;;;;;;;3.53;3.30;;;14.30;99.90;;;;;;10340496;28;20219;-80
2023/01/01 21:21:22;;;;;;;3.10;2.93;;;14.30;99.90;;;;;;10334681;28;20199;-80
2023/01/01 21:26:31;;;;;;;3.40;3.17;;;14.30;99.70;;;;;;10362342;28;20234;-80
2023/01/01 21:31:37;;;;;;;3.30;3.00;;;14.30;99.90;;;;;;10342798;28;20218;-80
2023/01/01 21:36:39;;;;;;;3.00;2.83;;;14.40;99.70;;;;;;10348135;28;20711;-80
2023/01/01 21:41:42;;;;;;;3.40;3.10;;;14.50;99.50;;;;;;10331619;28;20207;-81
2023/01/01 21:46:49;;;;;;;3.80;3.50;;;14.50;99.90;;;;;;10346374;28;20591;-80
2023/01/01 21:51:55;;;;;;;5.20;4.80;;;14.50;99.20;;;;;;10337824;28;20213;-82
2023/01/01 21:56:59;;;;;;;6.87;3.63;;;14.60;98.70;;;;;;10331858;28;20243;-80
2023/01/01 22:02:30;;;;;;;3.03;2.83;;;14.70;98.90;;;;;;10317114;28;20200;-83
2023/01/01 22:07:36;;;;;;;3.13;2.93;;;14.80;98.40;;;;;;10338013;28;20671;-82
2023/01/01 22:12:39;;;;;;;4.07;3.10;;;14.80;98.00;;;;;;10348790;28;20235;-83
2023/01/01 22:17:41;;;;;;;3.20;3.00;;;14.90;97.60;;;;;;10349094;28;20275;-81
2023/01/01 22:22:44;;;;;;;3.27;2.97;;;14.90;97.70;;;;;;10340526;28;20258;-81
2023/01/01 22:27:48;;;;;;;3.30;3.10;;;15.00;97.40;;;;;;10336788;28;20219;-83
2023/01/01 22:32:52;;;;;;;3.77;3.13;;;15.00;97.40;;;;;;10330836;28;20223;-83
2023/01/01 22:37:56;;;;;;;3.47;3.17;;;15.00;97.50;;;;;;10348130;28;20218;-81
2023/01/01 22:43:05;;;;;;;3.23;2.90;;;14.90;97.70;;;;;;10363031;28;20274;-83
2023/01/01 22:48:14;;;;;;;3.53;3.00;;;15.00;97.40;;;;;;10363109;28;20238;-83
2023/01/01 22:53:16;;;;;;;3.43;3.10;;;15.00;97.40;;;;;;10366268;28;20269;-83
2023/01/01 22:58:19;;;;;;;5.47;3.17;;;15.00;97.40;;;;;;10356507;28;20223;-83
2023/01/01 23:03:21;;;;;;;4.50;2.70;;;15.10;97.50;;;;;;10348476;28;20221;-80
2023/01/01 23:08:24;;;;;;;4.07;2.63;;;15.10;97.10;;;;;;10335049;28;20266;-83
2023/01/01 23:18:47;;;;;;;9.40;2.30;;;15.10;97.10;;;;;;10330304;28;20380;-82
2023/01/01 23:23:50;;;;;;;2.10;2.00;;;15.10;97.30;;;;;;10359620;28;20242;-81
2023/01/01 23:28:55;;;;;;;2.87;2.63;;;15.10;96.90;;;;;;10328884;28;20193;-81
2023/01/01 23:34:00;;;;;;;3.53;2.60;;;15.20;97.30;;;;;;10339591;28;20305;-81
2023/01/01 23:39:02;;;;;;;5.47;2.87;;;15.20;96.70;;;;;;10346287;28;20265;-81
2023/01/01 23:44:06;;;;;;;4.20;2.80;;;15.20;97.10;;;;;;10361863;28;20211;-80
2023/01/01 23:49:08;;;;;;;2.73;2.40;;;15.20;97.60;;;;;;10360255;28;20190;-82
2023/01/01 23:54:10;;;;;;;3.73;2.50;;;15.20;98.40;;;;;;10353188;28;20210;-80
2023/01/01 23:59:13;;;;;;;4.73;2.53;;;15.20;97.00;;;;;;10341894;28;20309;-80
